Memramcook, Canada
Current Conditions -  °F | °C
As of 4:00 AM on Saturday 29 Nov 2014 (Local Time) from CYQM Reporting Station
Overcast Overcast  
Wind Chill:   Ceiling: 11000
Heat Index: 14°   Visibility: 15mi
Dew Point: 10°   Wind: 9mph
Humidity: 86%   Direction: 240°WSW
Pressure: 30.06"   Gusts: NA
Location:  46.01°N, 64.54°W
Report Text: CYQM 290800Z 24008KT 15SM OVC110 M10/M12 A3006 RMK AC8 SLP182
Loading
Personal Weather Stations






























Interactive Weather Map New forecast layout! Learn more

10-Day Weather Forecast

Advertisements
Track Severe Weather on mobile